sensor_id;sensor_type;location;lat;lon;timestamp;temperature;humidity
546;DHT22;259;53.304;9.816;2022-09-12T00:00:36;18.20;98.00
546;DHT22;259;53.304;9.816;2022-09-12T00:03:01;18.10;97.80
546;DHT22;259;53.304;9.816;2022-09-12T00:05:27;18.10;97.80
546;DHT22;259;53.304;9.816;2022-09-12T00:07:52;18.10;97.60
546;DHT22;259;53.304;9.816;2022-09-12T00:10:18;18.10;97.60
546;DHT22;259;53.304;9.816;2022-09-12T00:12:44;18.10;97.60
546;DHT22;259;53.304;9.816;2022-09-12T00:15:10;18.10;97.60
546;DHT22;259;53.304;9.816;2022-09-12T00:17:37;18.10;97.60
546;DHT22;259;53.304;9.816;2022-09-12T00:20:04;18.10;97.60
546;DHT22;259;53.304;9.816;2022-09-12T00:22:31;18.10;97.70
546;DHT22;259;53.304;9.816;2022-09-12T00:24:57;18.10;97.70
546;DHT22;259;53.304;9.816;2022-09-12T00:27:22;18.10;97.60
546;DHT22;259;53.304;9.816;2022-09-12T00:29:48;18.10;97.60
546;DHT22;259;53.304;9.816;2022-09-12T00:32:13;18.10;97.70
546;DHT22;259;53.304;9.816;2022-09-12T00:34:39;18.10;97.70
546;DHT22;259;53.304;9.816;2022-09-12T00:37:04;18.00;97.60
546;DHT22;259;53.304;9.816;2022-09-12T00:39:30;18.00;97.60
546;DHT22;259;53.304;9.816;2022-09-12T00:41:56;18.00;97.60
546;DHT22;259;53.304;9.816;2022-09-12T00:46:56;18.00;97.70
546;DHT22;259;53.304;9.816;2022-09-12T00:49:34;18.00;97.70
546;DHT22;259;53.304;9.816;2022-09-12T00:52:23;18.00;97.50
546;DHT22;259;53.304;9.816;2022-09-12T00:57:31;18.00;97.60
546;DHT22;259;53.304;9.816;2022-09-12T01:00:10;17.90;97.60
546;DHT22;259;53.304;9.816;2022-09-12T01:02:55;17.90;97.50
546;DHT22;259;53.304;9.816;2022-09-12T01:05:23;17.90;97.60
546;DHT22;259;53.304;9.816;2022-09-12T01:07:50;17.90;97.70
546;DHT22;259;53.304;9.816;2022-09-12T01:10:17;17.90;97.50
546;DHT22;259;53.304;9.816;2022-09-12T01:12:44;17.90;97.60
546;DHT22;259;53.304;9.816;2022-09-12T01:15:10;17.90;97.50
546;DHT22;259;53.304;9.816;2022-09-12T01:31:12;17.80;97.50
546;DHT22;259;53.304;9.816;2022-09-12T01:34:50;17.80;97.50
546;DHT22;259;53.304;9.816;2022-09-12T01:36:47;17.80;97.60
546;DHT22;259;53.304;9.816;2022-09-12T01:39:19;17.80;97.60
546;DHT22;259;53.304;9.816;2022-09-12T01:42:20;17.80;97.60
546;DHT22;259;53.304;9.816;2022-09-12T01:48:00;17.80;97.50
546;DHT22;259;53.304;9.816;2022-09-12T01:50:31;17.80;97.50
546;DHT22;259;53.304;9.816;2022-09-12T01:53:05;17.80;97.50
546;DHT22;259;53.304;9.816;2022-09-12T01:55:33;17.80;97.50
546;DHT22;259;53.304;9.816;2022-09-12T02:00:32;17.80;97.50
546;DHT22;259;53.304;9.816;2022-09-12T02:03:03;17.80;97.50
546;DHT22;259;53.304;9.816;2022-09-12T02:05:39;17.80;97.50
546;DHT22;259;53.304;9.816;2022-09-12T02:08:12;17.80;97.50
546;DHT22;259;53.304;9.816;2022-09-12T02:10:56;17.80;97.50
546;DHT22;259;53.304;9.816;2022-09-12T02:16:24;17.70;97.50
546;DHT22;259;53.304;9.816;2022-09-12T02:18:56;17.70;97.50
546;DHT22;259;53.304;9.816;2022-09-12T02:21:25;17.70;97.50
546;DHT22;259;53.304;9.816;2022-09-12T02:23:55;17.70;97.50
546;DHT22;259;53.304;9.816;2022-09-12T02:26:34;17.70;97.50
546;DHT22;259;53.304;9.816;2022-09-12T02:29:01;17.70;97.50
546;DHT22;259;53.304;9.816;2022-09-12T02:31:37;17.60;97.40
546;DHT22;259;53.304;9.816;2022-09-12T02:37:06;17.70;97.50
546;DHT22;259;53.304;9.816;2022-09-12T02:39:33;17.60;97.40
546;DHT22;259;53.304;9.816;2022-09-12T02:42:01;17.70;97.50
546;DHT22;259;53.304;9.816;2022-09-12T02:44:28;17.60;97.40
546;DHT22;259;53.304;9.816;2022-09-12T02:46:59;17.60;97.50
546;DHT22;259;53.304;9.816;2022-09-12T02:49:26;17.60;97.50
546;DHT22;259;53.304;9.816;2022-09-12T02:51:52;17.60;97.40
546;DHT22;259;53.304;9.816;2022-09-12T02:54:18;17.60;97.40
546;DHT22;259;53.304;9.816;2022-09-12T02:56:45;17.60;97.50
546;DHT22;259;53.304;9.816;2022-09-12T02:59:14;17.60;97.40
546;DHT22;259;53.304;9.816;2022-09-12T03:10:40;17.50;97.40
546;DHT22;259;53.304;9.816;2022-09-12T03:13:27;17.50;97.40
546;DHT22;259;53.304;9.816;2022-09-12T03:16:14;17.50;97.40
546;DHT22;259;53.304;9.816;2022-09-12T03:22:27;17.50;97.40
546;DHT22;259;53.304;9.816;2022-09-12T03:25:05;17.50;97.40
546;DHT22;259;53.304;9.816;2022-09-12T03:27:41;17.50;97.40
546;DHT22;259;53.304;9.816;2022-09-12T03:30:09;17.50;97.40
546;DHT22;259;53.304;9.816;2022-09-12T03:32:48;17.50;97.40
546;DHT22;259;53.304;9.816;2022-09-12T03:35:16;17.50;97.40
546;DHT22;259;53.304;9.816;2022-09-12T03:37:42;17.50;97.50
546;DHT22;259;53.304;9.816;2022-09-12T03:40:10;17.50;97.50
546;DHT22;259;53.304;9.816;2022-09-12T03:42:37;17.50;97.40
546;DHT22;259;53.304;9.816;2022-09-12T03:45:07;17.50;97.40
546;DHT22;259;53.304;9.816;2022-09-12T03:47:33;17.50;97.40
546;DHT22;259;53.304;9.816;2022-09-12T03:49:59;17.50;97.40
546;DHT22;259;53.304;9.816;2022-09-12T03:52:25;17.50;97.40
546;DHT22;259;53.304;9.816;2022-09-12T03:54:50;17.40;97.40
546;DHT22;259;53.304;9.816;2022-09-12T03:57:16;17.40;97.40
546;DHT22;259;53.304;9.816;2022-09-12T03:59:42;17.40;97.40
546;DHT22;259;53.304;9.816;2022-09-12T04:02:07;17.40;97.50
546;DHT22;259;53.304;9.816;2022-09-12T04:04:36;17.40;97.40
546;DHT22;259;53.304;9.816;2022-09-12T04:07:01;17.40;97.40
546;DHT22;259;53.304;9.816;2022-09-12T04:09:27;17.40;97.40
546;DHT22;259;53.304;9.816;2022-09-12T04:11:52;17.40;97.40
546;DHT22;259;53.304;9.816;2022-09-12T04:14:18;17.40;97.40
546;DHT22;259;53.304;9.816;2022-09-12T04:16:43;17.40;97.40
546;DHT22;259;53.304;9.816;2022-09-12T04:19:10;17.30;97.40
546;DHT22;259;53.304;9.816;2022-09-12T04:21:36;17.30;97.40
546;DHT22;259;53.304;9.816;2022-09-12T04:24:02;17.30;97.30
546;DHT22;259;53.304;9.816;2022-09-12T04:26:27;17.30;97.30
546;DHT22;259;53.304;9.816;2022-09-12T04:28:54;17.30;97.40
546;DHT22;259;53.304;9.816;2022-09-12T04:31:22;17.30;97.40
546;DHT22;259;53.304;9.816;2022-09-12T04:33:55;17.30;97.40
546;DHT22;259;53.304;9.816;2022-09-12T04:36:22;17.30;97.30
546;DHT22;259;53.304;9.816;2022-09-12T04:38:48;17.30;97.40
546;DHT22;259;53.304;9.816;2022-09-12T04:43:41;17.30;97.30
546;DHT22;259;53.304;9.816;2022-09-12T04:46:09;17.30;97.30
546;DHT22;259;53.304;9.816;2022-09-12T04:48:35;17.20;97.40
546;DHT22;259;53.304;9.816;2022-09-12T04:51:20;17.20;97.40
546;DHT22;259;53.304;9.816;2022-09-12T04:53:48;17.20;97.50
546;DHT22;259;53.304;9.816;2022-09-12T04:56:14;17.20;97.40
546;DHT22;259;53.304;9.816;2022-09-12T04:58:40;17.20;97.40
546;DHT22;259;53.304;9.816;2022-09-12T05:01:15;17.20;97.40
546;DHT22;259;53.304;9.816;2022-09-12T05:03:42;17.20;97.40
546;DHT22;259;53.304;9.816;2022-09-12T05:06:10;17.20;97.50
546;DHT22;259;53.304;9.816;2022-09-12T05:08:36;17.20;97.40
546;DHT22;259;53.304;9.816;2022-09-12T05:11:09;17.20;97.40
546;DHT22;259;53.304;9.816;2022-09-12T05:13:34;17.20;97.50
546;DHT22;259;53.304;9.816;2022-09-12T05:16:03;17.20;97.50
546;DHT22;259;53.304;9.816;2022-09-12T05:18:31;17.20;97.40
546;DHT22;259;53.304;9.816;2022-09-12T05:21:02;17.20;97.40
546;DHT22;259;53.304;9.816;2022-09-12T05:23:29;17.20;97.40
546;DHT22;259;53.304;9.816;2022-09-12T05:25:56;17.10;97.40
546;DHT22;259;53.304;9.816;2022-09-12T05:28:23;17.20;97.40
546;DHT22;259;53.304;9.816;2022-09-12T05:31:16;17.20;97.40
546;DHT22;259;53.304;9.816;2022-09-12T05:33:45;17.20;97.40
546;DHT22;259;53.304;9.816;2022-09-12T05:36:13;17.20;97.30
546;DHT22;259;53.304;9.816;2022-09-12T05:38:39;17.20;97.70
546;DHT22;259;53.304;9.816;2022-09-12T05:41:16;17.20;97.40
546;DHT22;259;53.304;9.816;2022-09-12T05:43:42;17.20;97.40
546;DHT22;259;53.304;9.816;2022-09-12T05:46:12;17.10;97.30
546;DHT22;259;53.304;9.816;2022-09-12T05:48:40;17.10;97.30
546;DHT22;259;53.304;9.816;2022-09-12T05:51:20;17.10;97.30
546;DHT22;259;53.304;9.816;2022-09-12T05:53:48;17.10;97.40
546;DHT22;259;53.304;9.816;2022-09-12T05:56:22;17.10;97.40
546;DHT22;259;53.304;9.816;2022-09-12T05:58:53;17.10;97.40
546;DHT22;259;53.304;9.816;2022-09-12T06:01:19;17.10;97.40
546;DHT22;259;53.304;9.816;2022-09-12T06:03:47;17.10;97.40
546;DHT22;259;53.304;9.816;2022-09-12T06:06:14;17.10;97.40
546;DHT22;259;53.304;9.816;2022-09-12T06:08:42;17.10;97.40
546;DHT22;259;53.304;9.816;2022-09-12T06:11:14;17.00;97.30
546;DHT22;259;53.304;9.816;2022-09-12T06:13:41;17.10;97.40
546;DHT22;259;53.304;9.816;2022-09-12T06:16:12;17.10;97.50
546;DHT22;259;53.304;9.816;2022-09-12T06:18:38;17.00;97.40
546;DHT22;259;53.304;9.816;2022-09-12T06:21:11;17.00;97.40
546;DHT22;259;53.304;9.816;2022-09-12T06:23:38;17.00;97.40
546;DHT22;259;53.304;9.816;2022-09-12T06:26:05;17.00;97.40
546;DHT22;259;53.304;9.816;2022-09-12T06:28:31;17.00;97.50
546;DHT22;259;53.304;9.816;2022-09-12T06:31:19;17.00;97.40
546;DHT22;259;53.304;9.816;2022-09-12T06:33:47;17.00;97.50
546;DHT22;259;53.304;9.816;2022-09-12T06:36:21;17.00;97.40
546;DHT22;259;53.304;9.816;2022-09-12T06:38:52;17.00;97.50
546;DHT22;259;53.304;9.816;2022-09-12T06:41:18;17.00;97.60
546;DHT22;259;53.304;9.816;2022-09-12T06:43:43;17.00;97.50
546;DHT22;259;53.304;9.816;2022-09-12T06:46:09;17.00;97.60
546;DHT22;259;53.304;9.816;2022-09-12T06:48:35;17.00;97.50
546;DHT22;259;53.304;9.816;2022-09-12T06:51:06;17.00;97.50
546;DHT22;259;53.304;9.816;2022-09-12T06:53:34;16.90;97.50
546;DHT22;259;53.304;9.816;2022-09-12T06:56:15;17.00;97.60
546;DHT22;259;53.304;9.816;2022-09-12T06:58:42;16.90;97.60
546;DHT22;259;53.304;9.816;2022-09-12T07:01:16;16.90;97.50
546;DHT22;259;53.304;9.816;2022-09-12T07:03:45;16.90;97.70
546;DHT22;259;53.304;9.816;2022-09-12T07:06:13;16.90;97.50
546;DHT22;259;53.304;9.816;2022-09-12T07:08:40;16.90;97.50
546;DHT22;259;53.304;9.816;2022-09-12T07:11:19;16.90;97.50
546;DHT22;259;53.304;9.816;2022-09-12T07:13:47;16.90;97.50
546;DHT22;259;53.304;9.816;2022-09-12T07:16:14;16.90;97.50
546;DHT22;259;53.304;9.816;2022-09-12T07:18:40;16.90;97.50
546;DHT22;259;53.304;9.816;2022-09-12T07:21:08;17.00;97.50
546;DHT22;259;53.304;9.816;2022-09-12T07:23:34;17.00;97.50
546;DHT22;259;53.304;9.816;2022-09-12T07:26:03;17.00;97.60
546;DHT22;259;53.304;9.816;2022-09-12T07:28:30;16.90;97.50
546;DHT22;259;53.304;9.816;2022-09-12T07:30:56;17.00;97.70
546;DHT22;259;53.304;9.816;2022-09-12T07:33:26;17.00;98.30
546;DHT22;259;53.304;9.816;2022-09-12T07:35:52;17.00;98.10
546;DHT22;259;53.304;9.816;2022-09-12T07:38:21;17.10;98.80
546;DHT22;259;53.304;9.816;2022-09-12T07:40:47;17.10;98.60
546;DHT22;259;53.304;9.816;2022-09-12T07:43:13;17.20;99.10
546;DHT22;259;53.304;9.816;2022-09-12T07:45:38;17.30;99.30
546;DHT22;259;53.304;9.816;2022-09-12T07:48:07;17.40;99.90
546;DHT22;259;53.304;9.816;2022-09-12T07:50:33;17.40;99.90
546;DHT22;259;53.304;9.816;2022-09-12T07:52:58;17.50;99.90
546;DHT22;259;53.304;9.816;2022-09-12T07:55:24;17.50;99.90
546;DHT22;259;53.304;9.816;2022-09-12T07:57:50;17.60;99.90
546;DHT22;259;53.304;9.816;2022-09-12T08:00:17;17.60;99.90
546;DHT22;259;53.304;9.816;2022-09-12T08:02:43;17.60;99.90
546;DHT22;259;53.304;9.816;2022-09-12T08:05:09;17.60;99.90
546;DHT22;259;53.304;9.816;2022-09-12T08:07:35;17.60;99.90
546;DHT22;259;53.304;9.816;2022-09-12T08:10:00;17.60;99.90
546;DHT22;259;53.304;9.816;2022-09-12T08:12:27;17.70;99.90
546;DHT22;259;53.304;9.816;2022-09-12T08:14:53;17.70;99.90
546;DHT22;259;53.304;9.816;2022-09-12T08:17:18;17.70;99.90
546;DHT22;259;53.304;9.816;2022-09-12T08:19:44;17.70;99.90
546;DHT22;259;53.304;9.816;2022-09-12T08:22:10;17.70;99.90
546;DHT22;259;53.304;9.816;2022-09-12T08:24:36;17.80;99.90
546;DHT22;259;53.304;9.816;2022-09-12T08:27:04;17.80;99.90
546;DHT22;259;53.304;9.816;2022-09-12T08:29:29;17.80;99.90
546;DHT22;259;53.304;9.816;2022-09-12T08:31:55;17.90;99.90
546;DHT22;259;53.304;9.816;2022-09-12T08:34:20;17.90;99.90
546;DHT22;259;53.304;9.816;2022-09-12T08:36:46;17.90;99.90
546;DHT22;259;53.304;9.816;2022-09-12T08:39:12;17.90;99.90
546;DHT22;259;53.304;9.816;2022-09-12T08:41:43;17.80;99.90
546;DHT22;259;53.304;9.816;2022-09-12T08:49:29;17.70;99.90
546;DHT22;259;53.304;9.816;2022-09-12T08:52:02;17.70;99.90
546;DHT22;259;53.304;9.816;2022-09-12T08:54:29;17.70;99.90
546;DHT22;259;53.304;9.816;2022-09-12T08:57:03;17.70;99.90
546;DHT22;259;53.304;9.816;2022-09-12T08:59:36;17.70;99.90
546;DHT22;259;53.304;9.816;2022-09-12T09:02:04;17.70;99.90
546;DHT22;259;53.304;9.816;2022-09-12T09:04:50;17.70;99.90
546;DHT22;259;53.304;9.816;2022-09-12T09:15:17;17.80;99.90
546;DHT22;259;53.304;9.816;2022-09-12T09:18:00;17.80;99.90
546;DHT22;259;53.304;9.816;2022-09-12T09:21:08;17.90;99.90
546;DHT22;259;53.304;9.816;2022-09-12T09:23:33;18.00;99.90
546;DHT22;259;53.304;9.816;2022-09-12T09:28:53;18.10;99.90
546;DHT22;259;53.304;9.816;2022-09-12T09:31:21;18.10;99.90
546;DHT22;259;53.304;9.816;2022-09-12T09:33:49;18.20;99.90
546;DHT22;259;53.304;9.816;2022-09-12T09:39:19;18.20;99.90
546;DHT22;259;53.304;9.816;2022-09-12T09:44:28;18.20;99.90
546;DHT22;259;53.304;9.816;2022-09-12T09:46:56;18.30;99.90
546;DHT22;259;53.304;9.816;2022-09-12T09:49:23;18.30;99.90
546;DHT22;259;53.304;9.816;2022-09-12T09:51:50;18.40;99.90
546;DHT22;259;53.304;9.816;2022-09-12T09:54:38;18.40;99.90
546;DHT22;259;53.304;9.816;2022-09-12T10:03:03;18.50;99.90
546;DHT22;259;53.304;9.816;2022-09-12T10:05:43;18.50;99.90
546;DHT22;259;53.304;9.816;2022-09-12T10:08:09;18.50;99.90
546;DHT22;259;53.304;9.816;2022-09-12T10:11:08;18.40;99.90
546;DHT22;259;53.304;9.816;2022-09-12T10:16:47;18.40;99.90
546;DHT22;259;53.304;9.816;2022-09-12T10:19:21;18.40;99.90
546;DHT22;259;53.304;9.816;2022-09-12T10:21:55;18.30;99.90
546;DHT22;259;53.304;9.816;2022-09-12T10:24:29;18.30;99.90
546;DHT22;259;53.304;9.816;2022-09-12T10:29:39;18.30;99.90
546;DHT22;259;53.304;9.816;2022-09-12T10:32:11;18.30;99.90
546;DHT22;259;53.304;9.816;2022-09-12T10:34:42;18.30;99.90
546;DHT22;259;53.304;9.816;2022-09-12T10:37:31;18.30;99.90
546;DHT22;259;53.304;9.816;2022-09-12T10:39:59;18.40;99.90
546;DHT22;259;53.304;9.816;2022-09-12T10:47:58;18.60;99.90
546;DHT22;259;53.304;9.816;2022-09-12T10:52:54;18.60;99.90
546;DHT22;259;53.304;9.816;2022-09-12T10:55:36;18.60;99.90
546;DHT22;259;53.304;9.816;2022-09-12T10:58:21;18.60;99.90
546;DHT22;259;53.304;9.816;2022-09-12T11:01:06;18.60;99.90
546;DHT22;259;53.304;9.816;2022-09-12T11:03:40;18.60;99.90
546;DHT22;259;53.304;9.816;2022-09-12T11:06:11;18.60;99.90
546;DHT22;259;53.304;9.816;2022-09-12T11:14:33;18.60;99.90
546;DHT22;259;53.304;9.816;2022-09-12T11:23:24;18.60;99.90
546;DHT22;259;53.304;9.816;2022-09-12T11:28:55;18.70;99.90
546;DHT22;259;53.304;9.816;2022-09-12T11:32:04;18.70;99.90
546;DHT22;259;53.304;9.816;2022-09-12T11:35:00;18.70;99.90
546;DHT22;259;53.304;9.816;2022-09-12T11:40:36;18.70;99.90
546;DHT22;259;53.304;9.816;2022-09-12T11:43:33;18.70;99.90
546;DHT22;259;53.304;9.816;2022-09-12T11:46:28;18.80;99.90
546;DHT22;259;53.304;9.816;2022-09-12T11:49:05;18.80;99.90
546;DHT22;259;53.304;9.816;2022-09-12T11:54:41;18.80;99.90
546;DHT22;259;53.304;9.816;2022-09-12T12:02:58;18.80;99.90
546;DHT22;259;53.304;9.816;2022-09-12T12:08:09;18.80;99.90
546;DHT22;259;53.304;9.816;2022-09-12T12:10:38;18.80;99.90
546;DHT22;259;53.304;9.816;2022-09-12T12:13:16;18.90;99.90
546;DHT22;259;53.304;9.816;2022-09-12T12:15:55;18.90;99.90
546;DHT22;259;53.304;9.816;2022-09-12T12:18:29;18.90;99.90
546;DHT22;259;53.304;9.816;2022-09-12T12:20:56;19.00;99.90
546;DHT22;259;53.304;9.816;2022-09-12T12:23:40;19.10;99.90
546;DHT22;259;53.304;9.816;2022-09-12T12:26:58;19.10;99.90
546;DHT22;259;53.304;9.816;2022-09-12T12:34:37;19.00;99.90
546;DHT22;259;53.304;9.816;2022-09-12T12:44:58;19.00;99.90
546;DHT22;259;53.304;9.816;2022-09-12T12:47:43;19.00;99.90
546;DHT22;259;53.304;9.816;2022-09-12T12:52:51;19.10;99.90
546;DHT22;259;53.304;9.816;2022-09-12T12:58:01;19.10;99.90
546;DHT22;259;53.304;9.816;2022-09-12T13:00:33;19.10;99.90
546;DHT22;259;53.304;9.816;2022-09-12T13:06:01;19.20;99.90
546;DHT22;259;53.304;9.816;2022-09-12T13:08:31;19.30;99.90
546;DHT22;259;53.304;9.816;2022-09-12T13:11:13;19.30;99.90
546;DHT22;259;53.304;9.816;2022-09-12T13:13:49;19.40;99.90
546;DHT22;259;53.304;9.816;2022-09-12T13:16:52;19.50;99.90
546;DHT22;259;53.304;9.816;2022-09-12T13:19:34;19.60;99.90
546;DHT22;259;53.304;9.816;2022-09-12T13:22:05;19.60;99.90
546;DHT22;259;53.304;9.816;2022-09-12T13:24:33;19.70;99.90
546;DHT22;259;53.304;9.816;2022-09-12T13:26:59;19.70;99.90
546;DHT22;259;53.304;9.816;2022-09-12T13:29:26;19.70;99.90
546;DHT22;259;53.304;9.816;2022-09-12T13:32:00;19.80;99.90
546;DHT22;259;53.304;9.816;2022-09-12T13:34:36;19.80;99.90
546;DHT22;259;53.304;9.816;2022-09-12T13:37:17;19.80;99.90
546;DHT22;259;53.304;9.816;2022-09-12T13:43:13;19.80;99.90
546;DHT22;259;53.304;9.816;2022-09-12T13:45:40;19.80;99.90
546;DHT22;259;53.304;9.816;2022-09-12T13:48:14;19.80;99.90
546;DHT22;259;53.304;9.816;2022-09-12T13:50:53;19.90;99.90
546;DHT22;259;53.304;9.816;2022-09-12T13:53:23;19.90;99.90
546;DHT22;259;53.304;9.816;2022-09-12T13:55:57;20.00;99.90
546;DHT22;259;53.304;9.816;2022-09-12T13:58:26;20.00;99.90
546;DHT22;259;53.304;9.816;2022-09-12T14:03:40;19.90;99.90
546;DHT22;259;53.304;9.816;2022-09-12T14:06:25;19.90;99.90
546;DHT22;259;53.304;9.816;2022-09-12T14:08:53;19.90;99.90
546;DHT22;259;53.304;9.816;2022-09-12T14:11:26;19.90;99.90
546;DHT22;259;53.304;9.816;2022-09-12T14:13:53;19.90;99.90
546;DHT22;259;53.304;9.816;2022-09-12T14:16:20;20.00;99.90
546;DHT22;259;53.304;9.816;2022-09-12T14:18:48;20.00;99.90
546;DHT22;259;53.304;9.816;2022-09-12T14:23:54;20.10;99.90
546;DHT22;259;53.304;9.816;2022-09-12T14:26:22;20.20;99.90
546;DHT22;259;53.304;9.816;2022-09-12T14:28:49;20.30;99.90
546;DHT22;259;53.304;9.816;2022-09-12T14:31:28;20.30;99.90
546;DHT22;259;53.304;9.816;2022-09-12T14:33:55;20.30;99.90
546;DHT22;259;53.304;9.816;2022-09-12T14:36:28;20.40;99.90
546;DHT22;259;53.304;9.816;2022-09-12T14:38:57;20.40;99.90
546;DHT22;259;53.304;9.816;2022-09-12T14:41:30;20.50;99.90
546;DHT22;259;53.304;9.816;2022-09-12T14:43:59;20.50;99.90
546;DHT22;259;53.304;9.816;2022-09-12T14:46:31;20.50;99.90
546;DHT22;259;53.304;9.816;2022-09-12T14:56:58;20.80;99.90
546;DHT22;259;53.304;9.816;2022-09-12T14:59:36;20.80;99.90
546;DHT22;259;53.304;9.816;2022-09-12T15:02:24;20.90;99.90
546;DHT22;259;53.304;9.816;2022-09-12T15:05:17;20.90;99.90
546;DHT22;259;53.304;9.816;2022-09-12T15:07:52;21.00;99.90
546;DHT22;259;53.304;9.816;2022-09-12T15:10:27;20.90;99.90
546;DHT22;259;53.304;9.816;2022-09-12T15:15:35;21.00;99.90
546;DHT22;259;53.304;9.816;2022-09-12T15:18:02;21.00;99.90
546;DHT22;259;53.304;9.816;2022-09-12T15:20:27;21.00;99.90
546;DHT22;259;53.304;9.816;2022-09-12T15:22:53;21.00;99.90
546;DHT22;259;53.304;9.816;2022-09-12T15:25:19;21.00;99.90
546;DHT22;259;53.304;9.816;2022-09-12T15:27:46;21.00;99.90
546;DHT22;259;53.304;9.816;2022-09-12T15:30:12;21.00;99.90
546;DHT22;259;53.304;9.816;2022-09-12T15:32:39;21.00;99.90
546;DHT22;259;53.304;9.816;2022-09-12T15:37:41;21.10;99.90
546;DHT22;259;53.304;9.816;2022-09-12T15:40:08;21.10;99.90
546;DHT22;259;53.304;9.816;2022-09-12T15:42:34;21.10;99.90
546;DHT22;259;53.304;9.816;2022-09-12T15:44:59;21.10;99.90
546;DHT22;259;53.304;9.816;2022-09-12T15:47:25;21.10;99.90
546;DHT22;259;53.304;9.816;2022-09-12T15:49:51;21.10;99.90
546;DHT22;259;53.304;9.816;2022-09-12T15:52:16;21.10;99.90
546;DHT22;259;53.304;9.816;2022-09-12T15:54:42;21.00;99.90
546;DHT22;259;53.304;9.816;2022-09-12T15:57:08;21.00;99.90
546;DHT22;259;53.304;9.816;2022-09-12T15:59:34;21.00;99.90
546;DHT22;259;53.304;9.816;2022-09-12T16:02:00;21.00;99.90
546;DHT22;259;53.304;9.816;2022-09-12T16:04:27;21.00;99.90
546;DHT22;259;53.304;9.816;2022-09-12T16:06:54;21.00;99.90
546;DHT22;259;53.304;9.816;2022-09-12T16:09:20;20.90;99.90
546;DHT22;259;53.304;9.816;2022-09-12T16:11:46;20.90;99.90
546;DHT22;259;53.304;9.816;2022-09-12T16:14:17;20.90;99.90
546;DHT22;259;53.304;9.816;2022-09-12T16:16:43;20.90;99.90
546;DHT22;259;53.304;9.816;2022-09-12T16:19:15;20.80;99.90
546;DHT22;259;53.304;9.816;2022-09-12T16:21:41;20.80;99.90
546;DHT22;259;53.304;9.816;2022-09-12T16:24:06;20.80;99.90
546;DHT22;259;53.304;9.816;2022-09-12T16:26:32;20.80;99.90
546;DHT22;259;53.304;9.816;2022-09-12T16:28:58;20.80;99.90
546;DHT22;259;53.304;9.816;2022-09-12T16:31:24;20.80;99.90
546;DHT22;259;53.304;9.816;2022-09-12T16:33:49;20.70;99.90
546;DHT22;259;53.304;9.816;2022-09-12T16:36:18;20.70;99.90
546;DHT22;259;53.304;9.816;2022-09-12T16:38:46;20.70;99.90
546;DHT22;259;53.304;9.816;2022-09-12T16:41:12;20.70;99.90
546;DHT22;259;53.304;9.816;2022-09-12T16:43:39;20.70;99.90
546;DHT22;259;53.304;9.816;2022-09-12T16:46:11;20.60;99.90
546;DHT22;259;53.304;9.816;2022-09-12T16:48:41;20.60;99.90
546;DHT22;259;53.304;9.816;2022-09-12T16:51:06;20.60;99.90
546;DHT22;259;53.304;9.816;2022-09-12T16:53:34;20.60;99.90
546;DHT22;259;53.304;9.816;2022-09-12T16:56:00;20.60;99.90
546;DHT22;259;53.304;9.816;2022-09-12T16:58:26;20.60;99.90
546;DHT22;259;53.304;9.816;2022-09-12T17:00:59;20.60;99.90
546;DHT22;259;53.304;9.816;2022-09-12T17:03:25;20.50;99.90
546;DHT22;259;53.304;9.816;2022-09-12T17:06:12;20.50;99.90
546;DHT22;259;53.304;9.816;2022-09-12T17:08:40;20.50;99.90
546;DHT22;259;53.304;9.816;2022-09-12T17:11:11;20.50;99.90
546;DHT22;259;53.304;9.816;2022-09-12T17:13:38;20.50;99.90
546;DHT22;259;53.304;9.816;2022-09-12T17:16:08;20.50;99.90
546;DHT22;259;53.304;9.816;2022-09-12T17:18:36;20.50;99.90
546;DHT22;259;53.304;9.816;2022-09-12T17:21:02;20.50;99.90
546;DHT22;259;53.304;9.816;2022-09-12T17:23:28;20.40;99.90
546;DHT22;259;53.304;9.816;2022-09-12T17:25:54;20.50;99.90
546;DHT22;259;53.304;9.816;2022-09-12T17:28:20;20.40;99.90
546;DHT22;259;53.304;9.816;2022-09-12T17:30:46;20.40;99.90
546;DHT22;259;53.304;9.816;2022-09-12T17:33:12;20.40;99.90
546;DHT22;259;53.304;9.816;2022-09-12T17:35:39;20.40;99.90
546;DHT22;259;53.304;9.816;2022-09-12T17:38:07;20.40;99.90
546;DHT22;259;53.304;9.816;2022-09-12T17:40:34;20.40;99.90
546;DHT22;259;53.304;9.816;2022-09-12T17:43:00;20.40;99.90
546;DHT22;259;53.304;9.816;2022-09-12T17:45:26;20.40;99.90
546;DHT22;259;53.304;9.816;2022-09-12T17:47:52;20.40;99.90
546;DHT22;259;53.304;9.816;2022-09-12T17:50:18;20.40;99.90
546;DHT22;259;53.304;9.816;2022-09-12T17:52:44;20.40;99.90
546;DHT22;259;53.304;9.816;2022-09-12T17:55:10;20.40;99.90
546;DHT22;259;53.304;9.816;2022-09-12T17:57:36;20.40;99.90
546;DHT22;259;53.304;9.816;2022-09-12T18:00:03;20.40;99.90
546;DHT22;259;53.304;9.816;2022-09-12T18:02:28;20.40;99.90
546;DHT22;259;53.304;9.816;2022-09-12T18:04:54;20.30;99.90
546;DHT22;259;53.304;9.816;2022-09-12T18:07:20;20.40;99.90
546;DHT22;259;53.304;9.816;2022-09-12T18:09:46;20.20;99.90
546;DHT22;259;53.304;9.816;2022-09-12T18:12:13;20.40;99.90
546;DHT22;259;53.304;9.816;2022-09-12T18:14:39;20.30;99.90
546;DHT22;259;53.304;9.816;2022-09-12T18:17:05;20.30;99.90
546;DHT22;259;53.304;9.816;2022-09-12T18:19:36;20.30;99.90
546;DHT22;259;53.304;9.816;2022-09-12T18:22:04;20.30;99.90
546;DHT22;259;53.304;9.816;2022-09-12T18:24:34;20.30;99.90
546;DHT22;259;53.304;9.816;2022-09-12T18:26:59;20.30;99.90
546;DHT22;259;53.304;9.816;2022-09-12T18:29:26;20.30;99.90
546;DHT22;259;53.304;9.816;2022-09-12T18:31:52;20.30;99.90
546;DHT22;259;53.304;9.816;2022-09-12T18:34:18;20.20;99.90
546;DHT22;259;53.304;9.816;2022-09-12T18:36:47;20.20;99.90
546;DHT22;259;53.304;9.816;2022-09-12T18:39:14;20.30;99.90
546;DHT22;259;53.304;9.816;2022-09-12T18:41:40;20.30;99.90
546;DHT22;259;53.304;9.816;2022-09-12T18:44:06;20.20;99.90
546;DHT22;259;53.304;9.816;2022-09-12T18:46:34;20.20;99.90
546;DHT22;259;53.304;9.816;2022-09-12T18:49:00;20.20;99.90
546;DHT22;259;53.304;9.816;2022-09-12T18:51:31;20.20;99.90
546;DHT22;259;53.304;9.816;2022-09-12T18:54:02;20.20;99.90
546;DHT22;259;53.304;9.816;2022-09-12T18:56:30;20.20;99.90
546;DHT22;259;53.304;9.816;2022-09-12T18:58:57;20.20;99.90
546;DHT22;259;53.304;9.816;2022-09-12T19:01:25;20.20;99.90
546;DHT22;259;53.304;9.816;2022-09-12T19:03:52;20.20;99.90
546;DHT22;259;53.304;9.816;2022-09-12T19:06:20;20.20;99.90
546;DHT22;259;53.304;9.816;2022-09-12T19:08:47;20.20;99.90
546;DHT22;259;53.304;9.816;2022-09-12T19:11:14;20.20;99.90
546;DHT22;259;53.304;9.816;2022-09-12T19:13:41;20.20;99.90
546;DHT22;259;53.304;9.816;2022-09-12T19:16:10;20.20;99.90
546;DHT22;259;53.304;9.816;2022-09-12T19:18:37;20.10;99.90
546;DHT22;259;53.304;9.816;2022-09-12T19:21:03;20.10;99.90
546;DHT22;259;53.304;9.816;2022-09-12T19:23:30;20.20;99.90
546;DHT22;259;53.304;9.816;2022-09-12T19:25:59;20.10;99.90
546;DHT22;259;53.304;9.816;2022-09-12T19:28:26;20.20;99.90
546;DHT22;259;53.304;9.816;2022-09-12T19:30:51;20.10;99.90
546;DHT22;259;53.304;9.816;2022-09-12T19:33:18;20.10;99.90